createdAt,value
2018-10-21T00:01:27.158Z,101079.12
2018-10-21T00:04:03.242Z,101079.97
2018-10-21T00:06:39.198Z,101077.58
2018-10-21T00:09:16.069Z,101077.45
2018-10-21T00:11:52.222Z,101075.59
2018-10-21T00:14:28.636Z,101076.64
2018-10-21T00:17:04.830Z,101078.48
2018-10-21T00:19:40.896Z,101078.48
2018-10-21T00:22:17.222Z,101073.62
2018-10-21T00:24:53.065Z,101066.89
2018-10-21T00:27:28.930Z,101064.41
2018-10-21T00:30:05.286Z,101075.66
2018-10-21T00:32:46.690Z,101072.34
2018-10-21T00:35:23.227Z,101071.13
2018-10-21T00:38:00.046Z,101071.30
2018-10-21T00:40:36.269Z,101075.87
2018-10-21T00:43:12.426Z,101075.53
2018-10-21T00:45:48.703Z,101069.31
2018-10-21T00:48:25.028Z,101070.36
2018-10-21T00:51:01.127Z,101075.91
2018-10-21T00:53:37.436Z,101075.27
2018-10-21T00:56:13.422Z,101071.64
2018-10-21T00:58:49.717Z,101071.80
2018-10-21T01:01:25.464Z,101072.34
2018-10-21T01:04:01.760Z,101079.94
2018-10-21T01:06:38.129Z,101085.01
2018-10-21T01:09:16.429Z,101084.87
2018-10-21T01:11:52.965Z,101084.23
2018-10-21T01:14:28.886Z,101081.71
2018-10-21T01:17:05.245Z,101086.45
2018-10-21T01:19:41.413Z,101089.98
2018-10-21T01:22:17.417Z,101084.97
2018-10-21T01:24:53.399Z,101087.83
2018-10-21T01:27:29.418Z,101090.71
2018-10-21T01:30:05.509Z,101089.23
2018-10-21T01:32:41.859Z,101086.20
2018-10-21T01:35:18.384Z,101090.94
2018-10-21T01:37:54.747Z,101099.53
2018-10-21T01:40:49.250Z,101105.41
2018-10-21T01:43:27.565Z,101106.92
2018-10-21T01:46:04.738Z,101107.32
2018-10-21T01:48:41.245Z,101113.70
2018-10-21T01:51:17.495Z,101118.43
2018-10-21T01:53:54.249Z,101121.52
2018-10-21T01:56:30.628Z,101125.20
2018-10-21T01:59:07.101Z,101131.08
2018-10-21T02:01:43.534Z,101127.44
2018-10-21T02:04:20.254Z,101132.48
2018-10-21T02:06:56.253Z,101135.52
2018-10-21T02:09:33.021Z,101136.56
2018-10-21T02:12:09.634Z,101139.95
2018-10-21T02:14:46.078Z,101132.59
2018-10-21T02:17:22.207Z,101141.01
2018-10-21T02:19:58.265Z,101145.87
2018-10-21T02:22:34.653Z,101148.42
2018-10-21T02:25:11.326Z,101149.95
2018-10-21T02:27:48.125Z,101150.12
2018-10-21T02:30:26.273Z,101149.81
2018-10-21T02:33:03.129Z,101155.05
2018-10-21T02:35:39.489Z,101154.40
2018-10-21T02:38:15.302Z,101155.09
2018-10-21T02:41:49.218Z,101160.46
2018-10-21T02:44:25.548Z,101165.19
2018-10-21T02:47:01.269Z,101168.73
2018-10-21T02:49:37.100Z,101160.34
2018-10-21T02:52:14.275Z,101159.34
2018-10-21T02:54:50.454Z,101165.11
2018-10-21T02:57:26.717Z,101162.58
2018-10-21T03:00:03.025Z,101164.96
2018-10-21T03:02:40.099Z,101162.44
2018-10-21T03:05:16.274Z,101165.66
2018-10-21T03:07:53.077Z,101174.52
2018-10-21T03:10:29.083Z,101180.92
2018-10-21T03:13:05.111Z,101183.80
2018-10-21T03:15:41.330Z,101183.65
2018-10-21T03:18:17.528Z,101185.16
2018-10-21T03:20:53.762Z,101177.30
2018-10-21T03:23:29.861Z,101185.69
2018-10-21T03:26:06.287Z,101187.84
2018-10-21T03:28:42.882Z,101185.99
2018-10-21T03:31:19.328Z,101186.37
2018-10-21T03:33:55.508Z,101190.41
2018-10-21T03:36:31.442Z,101189.37
2018-10-21T03:39:07.457Z,101191.36
2018-10-21T03:41:43.004Z,101189.52
2018-10-21T03:44:18.997Z,101194.70
2018-10-21T03:46:54.290Z,101192.02
2018-10-21T03:49:29.903Z,101193.19
2018-10-21T03:52:05.124Z,101195.03
2018-10-21T03:54:43.103Z,101202.59
2018-10-21T03:57:18.733Z,101206.42
2018-10-21T03:59:54.294Z,101199.41
2018-10-21T04:02:29.913Z,101220.16
2018-10-21T04:05:05.462Z,101219.34
2018-10-21T04:07:40.947Z,101216.13
2018-10-21T04:10:17.151Z,101221.50
2018-10-21T04:12:52.878Z,101219.16
2018-10-21T04:15:29.137Z,101216.13
2018-10-21T04:18:04.668Z,101216.47
2018-10-21T04:20:41.457Z,101214.14
2018-10-21T04:23:17.781Z,101226.70
2018-10-21T04:25:53.945Z,101222.68
2018-10-21T04:28:29.882Z,101230.20
2018-10-21T04:31:05.904Z,101236.75
2018-10-21T04:33:43.135Z,101239.24
2018-10-21T04:36:27.465Z,101239.89
2018-10-21T04:40:19.926Z,101240.93
2018-10-21T04:42:56.198Z,101243.23
2018-10-21T04:45:31.807Z,101249.29
2018-10-21T04:48:08.118Z,101249.48
2018-10-21T04:50:44.314Z,101254.02
2018-10-21T04:53:20.894Z,101256.70
2018-10-21T04:55:57.553Z,101264.56
2018-10-21T04:58:34.160Z,101253.41
2018-10-21T05:01:10.556Z,101262.72
2018-10-21T05:03:46.798Z,101264.06
2018-10-21T05:06:23.717Z,101268.59
2018-10-21T05:09:00.150Z,101266.44
2018-10-21T05:11:36.437Z,101270.96
2018-10-21T05:14:12.942Z,101273.30
2018-10-21T05:18:22.057Z,101273.20
2018-10-21T05:20:58.771Z,101275.19
2018-10-21T05:23:35.353Z,101277.71
2018-10-21T05:26:11.620Z,101276.68
2018-10-21T05:28:48.178Z,101284.23
2018-10-21T05:31:24.932Z,101291.45
2018-10-21T05:35:21.719Z,101286.73
2018-10-21T05:37:58.110Z,101287.42
2018-10-21T05:42:45.335Z,101292.29
2018-10-21T05:45:21.350Z,101294.83
2018-10-21T05:47:57.082Z,101297.20
2018-10-21T05:51:38.518Z,101291.98
2018-10-21T05:54:51.386Z,101292.06
2018-10-21T05:57:27.149Z,101295.59
2018-10-21T06:00:03.102Z,101301.80
2018-10-21T06:02:39.123Z,101300.95
2018-10-21T06:05:50.815Z,101304.98
2018-10-21T06:08:26.992Z,101303.14
2018-10-21T06:12:23.133Z,101300.30
2018-10-21T06:14:59.080Z,101299.95
2018-10-21T06:17:35.293Z,101304.83
2018-10-21T06:20:22.205Z,101304.17
2018-10-21T06:22:58.348Z,101294.59
2018-10-21T06:25:34.198Z,101294.63
2018-10-21T06:28:10.965Z,101299.50
2018-10-21T06:30:47.210Z,101298.66
2018-10-21T06:33:23.346Z,101299.66
2018-10-21T06:35:59.345Z,101300.69
2018-10-21T06:38:35.518Z,101306.55
2018-10-21T06:41:11.930Z,101293.70
2018-10-21T06:43:47.886Z,101300.72
2018-10-21T06:46:24.021Z,101300.72
2018-10-21T06:49:00.634Z,101303.06
2018-10-21T06:51:36.957Z,101298.72
2018-10-21T06:54:13.306Z,101301.56
2018-10-21T06:56:49.525Z,101302.59
2018-10-21T06:59:25.837Z,101301.41
2018-10-21T07:02:01.789Z,101300.59
2018-10-21T07:04:38.005Z,101298.91
2018-10-21T07:07:14.489Z,101300.44
2018-10-21T07:09:51.796Z,101304.28
2018-10-21T07:12:27.534Z,101300.94
2018-10-21T07:15:03.632Z,101299.26
2018-10-21T07:17:39.349Z,101301.94
2018-10-21T07:20:15.657Z,101297.91
2018-10-21T07:22:52.090Z,101301.63
2018-10-21T07:25:28.094Z,101295.61
2018-10-21T07:28:04.210Z,101295.80
2018-10-21T07:30:40.758Z,101287.41
2018-10-21T07:33:16.529Z,101294.80
2018-10-21T07:35:52.585Z,101289.93
2018-10-21T07:38:29.072Z,101285.59
2018-10-21T07:41:05.370Z,101285.25
2018-10-21T07:43:41.645Z,101285.75
2018-10-21T07:46:17.992Z,101288.27
2018-10-21T07:48:54.600Z,101293.64
2018-10-21T07:51:30.441Z,101290.45
2018-10-21T07:54:06.618Z,101286.62
2018-10-21T07:56:43.812Z,101285.28
2018-10-21T07:59:19.932Z,101294.67
2018-10-21T08:01:56.181Z,101289.64
2018-10-21T08:04:32.205Z,101288.48
2018-10-21T08:07:22.211Z,101289.48
2018-10-21T08:09:58.243Z,101285.96
2018-10-21T08:12:34.784Z,101285.84
2018-10-21T08:15:11.187Z,101290.86
2018-10-21T08:17:47.245Z,101287.02
2018-10-21T08:20:23.212Z,101287.17
2018-10-21T08:22:59.796Z,101286.02
2018-10-21T08:25:36.045Z,101286.02
2018-10-21T08:28:12.244Z,101284.02
2018-10-21T08:30:48.370Z,101288.23
2018-10-21T08:33:24.450Z,101286.23
2018-10-21T08:36:00.806Z,101283.55
2018-10-21T08:38:37.392Z,101283.55
2018-10-21T08:41:13.673Z,101282.89
2018-10-21T08:43:50.234Z,101285.89
2018-10-21T08:46:26.785Z,101286.08
2018-10-21T08:49:03.035Z,101290.09
2018-10-21T08:51:39.131Z,101284.89
2018-10-21T08:54:15.170Z,101285.91
2018-10-21T08:56:51.553Z,101290.13
2018-10-21T08:59:28.348Z,101286.25
2018-10-21T09:02:05.283Z,101280.73
2018-10-21T09:04:41.417Z,101285.09
2018-10-21T09:07:18.077Z,101281.94
2018-10-21T09:09:54.491Z,101285.13
2018-10-21T09:12:31.471Z,101279.11
2018-10-21T09:15:07.707Z,101282.28
2018-10-21T09:17:44.261Z,101283.28
2018-10-21T09:20:21.445Z,101277.44
2018-10-21T09:22:57.608Z,101284.48
2018-10-21T09:25:33.641Z,101279.28
2018-10-21T09:28:10.279Z,101284.64
2018-10-21T09:30:46.627Z,101284.83
2018-10-21T09:33:22.635Z,101285.50
2018-10-21T09:35:59.081Z,101290.37
2018-10-21T09:38:35.568Z,101284.66
2018-10-21T09:41:11.448Z,101282.83
2018-10-21T09:43:47.458Z,101282.17
2018-10-21T09:46:23.872Z,101279.14
2018-10-21T09:49:00.458Z,101283.16
2018-10-21T09:51:36.418Z,101277.98
2018-10-21T09:54:12.662Z,101283.00
2018-10-21T09:56:48.581Z,101284.03
2018-10-21T09:59:24.929Z,101279.66
2018-10-21T10:02:05.132Z,101274.80
2018-10-21T10:04:40.965Z,101275.79
2018-10-21T10:07:17.100Z,101278.97
2018-10-21T10:09:53.473Z,101283.83
2018-10-21T10:12:29.934Z,101274.45
2018-10-21T10:15:06.270Z,101275.98
2018-10-21T10:17:42.516Z,101275.45
2018-10-21T10:20:19.074Z,101265.41
2018-10-21T10:22:55.170Z,101263.25
2018-10-21T10:25:31.453Z,101270.45
2018-10-21T10:28:08.601Z,101267.61
2018-10-21T10:30:45.240Z,101265.92
2018-10-21T10:33:25.877Z,101259.41
2018-10-21T10:36:05.084Z,101260.44
2018-10-21T10:38:41.229Z,101262.77
2018-10-21T10:41:17.170Z,101259.43
2018-10-21T10:43:53.242Z,101262.79
2018-10-21T10:46:29.620Z,101260.11
2018-10-21T10:49:05.669Z,101255.43
2018-10-21T10:51:42.014Z,101259.45
2018-10-21T10:54:18.478Z,101248.88
2018-10-21T10:56:55.138Z,101257.11
2018-10-21T10:59:31.240Z,101250.91
2018-10-21T11:02:07.470Z,101260.46
2018-10-21T11:04:43.432Z,101260.12
2018-10-21T11:07:19.608Z,101255.78
2018-10-21T11:09:59.024Z,101255.44
2018-10-21T11:12:35.241Z,101260.48
2018-10-21T11:15:12.391Z,101266.34
2018-10-21T11:17:48.724Z,101257.14
2018-10-21T11:20:24.899Z,101258.98
2018-10-21T11:23:00.965Z,101259.97
2018-10-21T11:25:37.245Z,101263.86
2018-10-21T11:28:13.669Z,101263.02
2018-10-21T11:30:49.885Z,101269.36
2018-10-21T11:33:26.096Z,101261.02
2018-10-21T11:36:02.300Z,101266.02
2018-10-21T11:38:38.279Z,101260.50
2018-10-21T11:41:14.349Z,101262.19
2018-10-21T11:43:50.450Z,101257.82
2018-10-21T11:46:26.349Z,101263.18
2018-10-21T11:49:02.123Z,101255.14
2018-10-21T11:51:39.055Z,101261.18
2018-10-21T11:54:15.206Z,101260.34
2018-10-21T11:56:51.247Z,101257.66
2018-10-21T11:59:27.282Z,101260.86
2018-10-21T12:02:03.233Z,101262.88
2018-10-21T12:04:39.308Z,101263.20
2018-10-21T12:07:16.121Z,101264.22
2018-10-21T12:09:52.617Z,101261.69
2018-10-21T12:12:28.983Z,101268.91
2018-10-21T12:15:05.036Z,101266.23
2018-10-21T12:17:41.412Z,101273.74
2018-10-21T12:20:17.622Z,101274.42
2018-10-21T12:22:53.475Z,101277.28
2018-10-21T12:25:30.660Z,101269.42
2018-10-21T12:28:07.306Z,101269.42
2018-10-21T12:30:43.519Z,101266.89
2018-10-21T12:33:19.329Z,101267.39
2018-10-21T12:35:55.132Z,101263.23
2018-10-21T12:38:31.309Z,101267.25
2018-10-21T12:41:07.649Z,101266.91
2018-10-21T12:43:44.486Z,101258.19
2018-10-21T12:46:20.588Z,101265.75
2018-10-21T12:48:56.604Z,101268.08
2018-10-21T12:51:33.021Z,101262.88
2018-10-21T12:54:09.524Z,101267.73
2018-10-21T12:56:46.216Z,101263.86
2018-10-21T12:59:22.633Z,101264.88
2018-10-21T13:01:58.858Z,101261.86
2018-10-21T13:04:35.289Z,101263.73
2018-10-21T13:07:11.532Z,101260.04
2018-10-21T13:09:48.074Z,101262.22
2018-10-21T13:12:24.033Z,101268.56
2018-10-21T13:15:00.286Z,101266.91
2018-10-21T13:17:38.290Z,101262.89
2018-10-21T13:20:14.673Z,101267.41
2018-10-21T13:22:50.938Z,101264.37
2018-10-21T13:25:27.234Z,101261.20
2018-10-21T13:28:03.244Z,101260.55
2018-10-21T13:30:39.281Z,101259.39
2018-10-21T13:33:15.249Z,101259.88
2018-10-21T13:35:51.233Z,101268.09
2018-10-21T13:38:27.541Z,101266.41
2018-10-21T13:41:03.503Z,101264.22
2018-10-21T13:43:39.481Z,101271.94
2018-10-21T13:46:16.330Z,101272.43
2018-10-21T13:48:52.311Z,101273.42
2018-10-21T13:51:28.333Z,101272.44
2018-10-21T13:54:04.493Z,101271.59
2018-10-21T13:56:40.881Z,101275.79
2018-10-21T13:59:17.125Z,101271.44
2018-10-21T14:01:53.493Z,101275.13
2018-10-21T14:04:29.995Z,101273.44
2018-10-21T14:07:06.325Z,101271.61
2018-10-21T14:09:42.690Z,101266.09
2018-10-21T14:12:18.959Z,101269.93
2018-10-21T14:14:55.146Z,101264.73
2018-10-21T14:17:31.203Z,101263.25
2018-10-21T14:20:26.614Z,101259.39
2018-10-21T14:23:02.676Z,101262.56
2018-10-21T14:25:39.293Z,101259.89
2018-10-21T14:28:15.161Z,101263.70
2018-10-21T14:30:51.329Z,101261.20
2018-10-21T14:33:27.730Z,101258.00
2018-10-21T14:36:03.638Z,101263.20
2018-10-21T14:38:40.577Z,101266.52
2018-10-21T14:41:16.722Z,101258.84
2018-10-21T14:43:52.728Z,101271.55
2018-10-21T14:46:29.159Z,101262.19
2018-10-21T14:49:05.522Z,101265.84
2018-10-21T14:51:41.343Z,101269.68
2018-10-21T14:54:17.393Z,101268.69
2018-10-21T14:56:53.609Z,101275.88
2018-10-21T14:59:29.697Z,101271.19
2018-10-21T15:02:05.782Z,101269.50
2018-10-21T15:04:42.093Z,101272.48
2018-10-21T15:07:18.150Z,101272.66
2018-10-21T15:09:54.613Z,101274.17
2018-10-21T15:12:31.099Z,101277.83
2018-10-21T15:15:07.345Z,101280.33
2018-10-21T15:17:43.518Z,101285.00
2018-10-21T15:20:19.558Z,101286.34
2018-10-21T15:22:55.655Z,101288.02
2018-10-21T15:25:32.206Z,101293.02
2018-10-21T15:28:08.443Z,101292.17
2018-10-21T15:30:45.023Z,101294.70
2018-10-21T15:33:22.311Z,101295.68
2018-10-21T15:35:58.352Z,101297.85
2018-10-21T15:38:34.689Z,101299.33
2018-10-21T15:41:12.259Z,101300.84
2018-10-21T15:43:48.373Z,101306.67
2018-10-21T15:46:24.545Z,101313.17
2018-10-21T15:49:00.617Z,101315.84
2018-10-21T15:51:36.795Z,101316.69
2018-10-21T15:54:13.327Z,101313.70
2018-10-21T15:56:50.123Z,101316.02
2018-10-21T15:59:27.884Z,101319.70
2018-10-21T16:02:03.581Z,101320.19
2018-10-21T16:04:39.733Z,101323.54
2018-10-21T16:07:15.548Z,101325.05
2018-10-21T16:09:51.701Z,101327.55
2018-10-21T16:12:27.761Z,101327.20
2018-10-21T16:15:04.733Z,101327.91
2018-10-21T16:17:40.699Z,101331.09
2018-10-21T16:20:17.227Z,101325.57
2018-10-21T16:22:54.283Z,101325.25
2018-10-21T16:25:30.748Z,101335.77
2018-10-21T16:28:07.299Z,101336.62
2018-10-21T16:30:44.153Z,101336.62
2018-10-21T16:33:21.066Z,101333.09
2018-10-21T16:35:57.171Z,101333.77
2018-10-21T16:38:33.364Z,101330.61
2018-10-21T16:41:09.725Z,101331.77
2018-10-21T16:43:45.918Z,101333.30
2018-10-21T16:46:22.495Z,101338.64
2018-10-21T16:48:58.414Z,101340.64
2018-10-21T16:51:34.574Z,101341.66
2018-10-21T16:54:11.102Z,101338.14
2018-10-21T16:56:47.344Z,101335.29
2018-10-21T16:59:23.880Z,101338.95
2018-10-21T17:02:00.587Z,101337.78
2018-10-21T17:04:36.835Z,101339.29
2018-10-21T17:07:13.604Z,101330.42
2018-10-21T17:09:51.500Z,101337.59
2018-10-21T17:12:27.882Z,101337.59
2018-10-21T17:15:04.551Z,101333.75
2018-10-21T17:17:41.507Z,101328.90
2018-10-21T17:20:19.156Z,101332.24
2018-10-21T17:22:56.255Z,101326.59
2018-10-21T17:25:32.866Z,101323.92
2018-10-21T17:28:09.252Z,101325.27
2018-10-21T17:30:45.416Z,101330.45
2018-10-21T17:33:21.543Z,101332.45
2018-10-21T17:35:57.736Z,101328.80
2018-10-21T17:38:33.718Z,101326.97
2018-10-21T17:41:09.933Z,101324.62
2018-10-21T17:43:46.358Z,101323.28
2018-10-21T17:46:22.672Z,101328.31
2018-10-21T17:48:59.310Z,101332.64
2018-10-21T17:51:36.050Z,101332.64
2018-10-21T17:54:12.582Z,101326.30
2018-10-21T17:56:52.331Z,101327.64
2018-10-21T17:59:28.418Z,101329.30
2018-10-21T18:02:04.401Z,101323.63
2018-10-21T18:04:40.592Z,101326.30
2018-10-21T18:07:16.682Z,101324.79
2018-10-21T18:09:53.520Z,101321.94
2018-10-21T18:12:29.581Z,101323.62
2018-10-21T18:15:06.152Z,101319.27
2018-10-21T18:17:43.024Z,101318.41
2018-10-21T18:20:19.021Z,101317.75
2018-10-21T18:22:53.210Z,101318.11
2018-10-21T18:25:29.145Z,101323.28
2018-10-21T18:28:05.619Z,101316.60
2018-10-21T18:30:41.583Z,101313.93
2018-10-21T18:33:17.777Z,101315.13
2018-10-21T18:35:54.122Z,101316.12
2018-10-21T18:38:30.402Z,101313.30
2018-10-21T18:41:07.340Z,101306.45
2018-10-21T18:43:43.815Z,101309.61
2018-10-21T18:46:20.404Z,101308.63
2018-10-21T18:48:56.773Z,101308.31
2018-10-21T18:51:33.162Z,101303.46
2018-10-21T18:54:09.201Z,101305.82
2018-10-21T18:56:45.114Z,101302.13
2018-10-21T18:59:22.383Z,101300.12
2018-10-21T19:01:58.317Z,101298.47
2018-10-21T19:04:34.538Z,101301.31
2018-10-21T19:07:11.671Z,101289.77
2018-10-21T19:09:47.590Z,101289.59
2018-10-21T19:12:23.613Z,101289.59
2018-10-21T19:14:59.830Z,101283.96
2018-10-21T19:17:36.385Z,101286.32
2018-10-21T19:20:15.777Z,101275.09
2018-10-21T19:22:52.383Z,101274.59
2018-10-21T19:25:28.612Z,101270.94
2018-10-21T19:28:04.815Z,101268.58
2018-10-21T19:30:41.401Z,101276.63
2018-10-21T19:34:07.253Z,101265.90
2018-10-21T19:36:43.429Z,101264.41
2018-10-21T19:39:19.984Z,101254.55
2018-10-21T19:41:55.643Z,101260.73
2018-10-21T19:44:31.178Z,101260.39
2018-10-21T19:47:05.059Z,101260.23
2018-10-21T19:49:40.975Z,101259.71
2018-10-21T19:52:17.237Z,101263.73
2018-10-21T19:57:31.790Z,101252.04
2018-10-21T20:00:08.253Z,101244.99
2018-10-21T20:02:44.611Z,101241.99
2018-10-21T20:05:20.047Z,101234.63
2018-10-21T20:07:55.829Z,101228.95
2018-10-21T20:10:31.611Z,101231.80
2018-10-21T20:13:07.090Z,101229.44
2018-10-21T20:15:42.810Z,101229.42
2018-10-21T20:18:18.461Z,101224.42
2018-10-21T20:20:55.112Z,101225.25
2018-10-21T20:23:31.054Z,101214.70
2018-10-21T20:26:06.650Z,101215.01
2018-10-21T20:28:42.833Z,101207.84
2018-10-21T20:31:18.665Z,101201.12
2018-10-21T20:33:54.646Z,101202.97
2018-10-21T20:36:30.439Z,101206.31
2018-10-21T20:40:44.613Z,101199.59
2018-10-21T20:43:20.443Z,101188.55
2018-10-21T20:45:57.305Z,101186.84
2018-10-21T20:48:33.406Z,101185.67
2018-10-21T20:51:09.585Z,101185.83
2018-10-21T20:53:45.353Z,101182.28
2018-10-21T20:56:21.573Z,101176.59
2018-10-21T20:58:58.670Z,101175.07
2018-10-21T21:01:35.287Z,101171.21
2018-10-21T21:04:11.862Z,101163.34
2018-10-21T21:06:47.860Z,101165.83
2018-10-21T21:09:23.629Z,101155.61
2018-10-21T21:11:59.313Z,101152.56
2018-10-21T21:14:35.427Z,101148.23
2018-10-21T21:17:11.217Z,101147.55
2018-10-21T21:19:47.113Z,101141.20
2018-10-21T21:22:23.446Z,101145.34
2018-10-21T21:24:59.809Z,101152.20
2018-10-21T21:27:35.453Z,101137.80
2018-10-21T21:30:11.721Z,101137.12
2018-10-21T21:32:47.478Z,101138.77
2018-10-21T21:35:23.290Z,101132.75
2018-10-21T21:37:59.438Z,101137.96
2018-10-21T21:40:36.150Z,101142.29
2018-10-21T21:43:12.154Z,101130.77
2018-10-21T21:45:48.106Z,101127.20
2018-10-21T21:48:23.446Z,101128.20
2018-10-21T21:51:00.502Z,101125.64
2018-10-21T21:53:36.836Z,101122.77
2018-10-21T21:56:13.462Z,101120.90
2018-10-21T21:58:49.916Z,101124.58
2018-10-21T22:01:25.902Z,101113.47
2018-10-21T22:04:01.835Z,101117.15
2018-10-21T22:06:37.643Z,101109.75
2018-10-21T22:09:16.334Z,101109.95
2018-10-21T22:11:51.862Z,101113.62
2018-10-21T22:14:27.679Z,101106.58
2018-10-21T22:17:03.312Z,101109.38
2018-10-21T22:22:20.654Z,101107.72
2018-10-21T22:24:56.516Z,101105.84
2018-10-21T22:27:32.480Z,101106.84
2018-10-21T22:30:09.287Z,101104.62
2018-10-21T22:32:44.828Z,101097.26
2018-10-21T22:35:20.544Z,101096.96
2018-10-21T22:37:57.209Z,101092.94
2018-10-21T22:40:32.889Z,101095.31
2018-10-21T22:43:08.490Z,101092.98
2018-10-21T22:45:43.826Z,101092.79
2018-10-21T22:48:19.621Z,101096.12
2018-10-21T22:50:55.335Z,101095.27
2018-10-21T22:53:31.502Z,101089.86
2018-10-21T22:56:07.318Z,101089.52
2018-10-21T22:58:43.152Z,101093.66
2018-10-21T23:01:18.940Z,101090.28
2018-10-21T23:03:54.735Z,101087.09
2018-10-21T23:06:31.400Z,101081.56
2018-10-21T23:09:09.648Z,101084.01
2018-10-21T23:11:46.284Z,101079.62
2018-10-21T23:14:22.682Z,101074.91
2018-10-21T23:16:58.681Z,101074.36
2018-10-21T23:19:46.286Z,101074.81
2018-10-21T23:22:22.558Z,101071.42
2018-10-21T23:24:59.066Z,101066.50
2018-10-21T23:27:34.505Z,101072.86
2018-10-21T23:30:10.569Z,101069.49
2018-10-21T23:32:46.229Z,101070.67
2018-10-21T23:35:21.839Z,101072.66
2018-10-21T23:37:57.894Z,101067.59
2018-10-21T23:40:33.841Z,101061.67
2018-10-21T23:43:09.941Z,101064.20
2018-10-21T23:45:45.710Z,101068.17
2018-10-21T23:48:21.459Z,101064.79
2018-10-21T23:50:57.234Z,101064.43
2018-10-21T23:53:33.352Z,101067.92
2018-10-21T23:56:09.675Z,101061.21
2018-10-21T23:58:45.512Z,101064.04
